CYPE

Peace River Airport

Peace River, Alberta, Canada
TAF CYPE 190039Z 1901/1913 06008KT 2SM -SN OVC010 TEMPO 1901/1905 6SM -SN OVC025 PROB30 1901/1905 3/4SM -SHSN VV008 FM190500 06010KT P6SM SCT015 BKN030 TEMPO 1905/1913 4SM -SN BR SCT008 OVC015 RMK NXT FCST BY 190700Z
Issued Valid From Valid To
Jan-19 @ 00:39 UTC
(2 hours ago)
Jan-19 @ 01:00 UTC
(2 hours ago)
Jan-19 @ 13:00 UTC
(in 10 hours)
Jan-19 @ 01:00 to Jan-19 @ 05:00
TAF CYPE 190039Z 1901/1913 06008KT 2SM -SN OVC010
Wind Visibility Clouds Conditions
60° at 8 knots 2 miles
  • Overcast at 1,000' AGL
  • Light Snow
Temporary Jan-19 @ 01:00 to Jan-19 @ 05:00
TEMPO 1901/1905 6SM -SN OVC025
Visibility Clouds Conditions
6 miles
  • Overcast at 2,500' AGL
  • Light Snow
Probable  (Probability 30%) Jan-19 @ 01:00 to Jan-19 @ 05:00
PROB30 1901/1905 3/4SM -SHSN VV008
Visibility Clouds Conditions
3/4 miles
  • Vertical visibility at 800' AGL
  • Light Snow
From Jan-19 @ 05:00 to Jan-19 @ 13:00
FM190500 06010KT P6SM SCT015 BKN030
Wind Visibility Clouds
60° at 10 knots Greater than 6 miles
  • Scattered at 1,500' AGL
  • Broken at 3,000' AGL
Temporary Jan-19 @ 05:00 to Jan-19 @ 13:00
TEMPO 1905/1913 4SM -SN BR SCT008 OVC015 RMK NXT FCST BY 190700Z
Visibility Clouds Conditions
4 miles
  • Scattered at 800' AGL
  • Overcast at 1,500' AGL
  • Light Snow
  • Mist
TAF CYPE 190039Z 1901/1913 06008KT 2SM -SN OVC010 TEMPO 1901/1905 6SM -SN OVC025 PROB30 1901/1905 3/4SM -SHSN VV008 FM190500 06010KT P6SM SCT015 BKN030 TEMPO 1905/1913 4SM -SN BR SCT008 OVC015 RMK NXT FCST BY 190700Z
Issued Jan-19 @ 00:39 UTC
(2 hours ago)
Valid From Jan-19 @ 01:00 UTC
(2 hours ago)
Valid To Jan-19 @ 13:00 UTC
(in 10 hours)
Jan-19 @ 01:00 - Jan-19 @ 05:00
Wind Visibility
60° at 8 knots 2 miles
Clouds
  • Overcast at 1,000' AGL
Conditions
  • Light Snow
Temporary Jan-19 @ 01:00 - Jan-19 @ 05:00
Clouds
  • Overcast at 2,500' AGL
Conditions
  • Light Snow
Probability 30% Probable Jan-19 @ 01:00 - Jan-19 @ 05:00
Clouds
  • Vertical visibility at 800' AGL
Conditions
  • Light Snow
From Jan-19 @ 05:00 - Jan-19 @ 13:00
Wind Visibility
60° at 10 knots Greater than 6 miles
Clouds
  • Scattered at 1,500' AGL
  • Broken at 3,000' AGL
Temporary Jan-19 @ 05:00 - Jan-19 @ 13:00
Clouds
  • Scattered at 800' AGL
  • Overcast at 1,500' AGL
Conditions
  • Light Snow
  • Mist